createdAt,value
2019-04-07T00:01:18.464Z,60.04
2019-04-07T00:03:48.334Z,60.02
2019-04-07T00:06:17.815Z,60.27
2019-04-07T00:08:47.528Z,60.05
2019-04-07T00:11:17.664Z,60.05
2019-04-07T00:13:47.167Z,60.36
2019-04-07T00:16:16.939Z,60.47
2019-04-07T00:18:47.044Z,61.41
2019-04-07T00:21:16.867Z,61.84
2019-04-07T00:23:46.322Z,62.71
2019-04-07T00:26:19.136Z,62.71
2019-04-07T00:28:49.804Z,61.33
2019-04-07T00:31:19.427Z,61.72
2019-04-07T00:33:48.893Z,61.72
2019-04-07T00:36:18.961Z,61.73
2019-04-07T00:38:48.924Z,61.45
2019-04-07T00:41:18.479Z,61.61
2019-04-07T00:43:48.061Z,61.64
2019-04-07T00:46:17.944Z,62.29
2019-04-07T00:48:47.499Z,62.24
2019-04-07T00:51:16.971Z,62.68
2019-04-07T00:53:46.468Z,62.63
2019-04-07T00:56:15.922Z,62.19
2019-04-07T00:58:45.703Z,62.31
2019-04-07T01:01:16.842Z,62.47
2019-04-07T01:03:46.296Z,62.94
2019-04-07T01:06:15.737Z,62.86
2019-04-07T01:08:45.694Z,63.00
2019-04-07T01:11:15.729Z,63.17
2019-04-07T01:13:45.274Z,63.87
2019-04-07T01:16:14.686Z,63.97
2019-04-07T01:18:44.234Z,63.84
2019-04-07T01:21:13.879Z,63.68
2019-04-07T01:23:43.639Z,63.88
2019-04-07T01:26:13.807Z,64.67
2019-04-07T01:28:46.296Z,64.71
2019-04-07T01:31:15.787Z,65.17
2019-04-07T01:33:45.318Z,65.21
2019-04-07T01:36:17.453Z,65.65
2019-04-07T01:38:47.455Z,65.68
2019-04-07T01:41:19.518Z,65.83
2019-04-07T01:43:57.527Z,65.38
2019-04-07T01:46:28.600Z,64.64
2019-04-07T01:49:06.663Z,64.45
2019-04-07T01:51:47.868Z,64.58
2019-04-07T01:54:33.657Z,64.50
2019-04-07T01:57:20.198Z,64.74
2019-04-07T01:59:51.952Z,65.02
2019-04-07T02:02:35.575Z,65.03
2019-04-07T02:05:25.352Z,64.97
2019-04-07T02:08:05.558Z,65.10
2019-04-07T02:10:42.922Z,65.81
2019-04-07T02:13:19.860Z,65.70
2019-04-07T02:15:57.725Z,65.20
2019-04-07T02:18:28.926Z,65.09
2019-04-07T02:21:00.096Z,65.12
2019-04-07T02:23:33.982Z,65.79
2019-04-07T02:26:06.043Z,65.26
2019-04-07T02:28:37.233Z,65.08
2019-04-07T02:31:25.863Z,65.24
2019-04-07T02:34:05.597Z,66.01
2019-04-07T02:36:37.574Z,67.58
2019-04-07T02:39:09.214Z,68.27
2019-04-07T02:41:40.437Z,68.84
2019-04-07T02:44:15.432Z,69.57
2019-04-07T02:46:49.635Z,69.61
2019-04-07T02:49:33.818Z,70.52
2019-04-07T02:52:11.127Z,70.99
2019-04-07T02:54:59.239Z,71.58
2019-04-07T02:57:36.556Z,71.69
2019-04-07T03:00:12.001Z,71.84
2019-04-07T03:02:55.835Z,72.28
2019-04-07T03:05:27.076Z,72.27
2019-04-07T03:07:58.299Z,72.28
2019-04-07T03:10:36.456Z,72.51
2019-04-07T03:13:14.514Z,72.71
2019-04-07T03:15:48.759Z,72.75
2019-04-07T03:18:20.216Z,72.19
2019-04-07T03:20:55.794Z,71.93
2019-04-07T03:23:32.959Z,71.12
2019-04-07T03:26:11.044Z,71.73
2019-04-07T03:28:47.945Z,72.35
2019-04-07T03:31:32.159Z,72.48
2019-04-07T03:34:06.119Z,71.90
2019-04-07T03:37:16.162Z,72.42
2019-04-07T03:39:24.481Z,72.23
2019-04-07T03:41:55.743Z,72.92
2019-04-07T03:44:29.648Z,73.45
2019-04-07T03:47:01.476Z,73.95
2019-04-07T03:49:41.965Z,74.26
2019-04-07T03:52:25.145Z,74.93
2019-04-07T03:55:02.284Z,75.64
2019-04-07T03:57:46.348Z,75.97
2019-04-07T04:01:11.563Z,76.32
2019-04-07T04:03:59.006Z,76.46
2019-04-07T04:06:47.246Z,76.18
2019-04-07T04:09:37.938Z,76.09
2019-04-07T04:12:22.813Z,76.27
2019-04-07T04:15:10.571Z,76.01
2019-04-07T04:17:40.093Z,75.72
2019-04-07T04:20:10.589Z,75.35
2019-04-07T04:22:40.254Z,75.31
2019-04-07T04:25:10.778Z,74.70
2019-04-07T04:27:41.965Z,74.66
2019-04-07T04:30:12.267Z,74.56
2019-04-07T04:32:42.102Z,74.51
2019-04-07T04:35:12.967Z,74.56
2019-04-07T04:37:48.117Z,74.91
2019-04-07T04:40:14.175Z,74.98
2019-04-07T04:42:44.340Z,74.86
2019-04-07T04:45:14.027Z,75.49
2019-04-07T04:47:43.469Z,75.17
2019-04-07T04:50:13.047Z,75.11
2019-04-07T04:52:42.822Z,74.90
2019-04-07T04:55:13.273Z,75.08
2019-04-07T04:57:42.775Z,75.13
2019-04-07T05:00:13.512Z,75.02
2019-04-07T05:02:44.181Z,75.08
2019-04-07T05:05:13.923Z,75.17
2019-04-07T05:07:54.019Z,75.32
2019-04-07T05:10:14.747Z,75.11
2019-04-07T05:12:44.603Z,75.08
2019-04-07T05:15:14.740Z,75.08
2019-04-07T05:17:44.586Z,75.32
2019-04-07T05:20:14.679Z,75.79
2019-04-07T05:22:44.493Z,76.22
2019-04-07T05:25:14.054Z,75.99
2019-04-07T05:27:43.443Z,75.87
2019-04-07T05:30:13.040Z,76.03
2019-04-07T05:32:43.125Z,75.86
2019-04-07T05:35:13.207Z,76.10
2019-04-07T05:37:43.326Z,76.08
2019-04-07T05:40:14.023Z,75.97
2019-04-07T05:42:43.490Z,75.91
2019-04-07T05:45:13.091Z,75.44
2019-04-07T05:47:47.320Z,75.29
2019-04-07T05:50:14.423Z,75.15
2019-04-07T05:52:44.509Z,74.68
2019-04-07T05:55:14.310Z,74.25
2019-04-07T05:57:44.202Z,74.03
2019-04-07T06:00:16.540Z,74.21
2019-04-07T06:02:45.786Z,74.50
2019-04-07T06:05:16.188Z,75.08
2019-04-07T06:07:47.011Z,75.11
2019-04-07T06:10:16.745Z,74.55
2019-04-07T06:12:47.366Z,73.15
2019-04-07T06:15:21.561Z,71.88
2019-04-07T06:17:49.083Z,72.13
2019-04-07T06:20:18.960Z,73.08
2019-04-07T06:22:52.837Z,73.49
2019-04-07T06:25:19.576Z,74.59
2019-04-07T06:27:49.073Z,75.37
2019-04-07T06:30:19.525Z,74.45
2019-04-07T06:32:49.020Z,72.87
2019-04-07T06:35:19.267Z,71.28
2019-04-07T06:37:49.916Z,71.01
2019-04-07T06:40:20.644Z,70.90
2019-04-07T06:42:50.605Z,68.47
2019-04-07T06:45:22.761Z,69.52
2019-04-07T06:47:55.237Z,68.75
2019-04-07T06:50:49.392Z,69.33
2019-04-07T06:53:18.641Z,68.91
2019-04-07T06:56:04.957Z,69.10
2019-04-07T06:58:51.489Z,69.44
2019-04-07T07:01:32.294Z,68.90
2019-04-07T07:04:22.295Z,69.61
2019-04-07T07:06:53.420Z,68.40
2019-04-07T07:09:26.428Z,70.10
2019-04-07T07:12:19.186Z,67.79
2019-04-07T07:14:58.369Z,67.86
2019-04-07T07:17:33.160Z,66.94
2019-04-07T07:20:05.683Z,68.37
2019-04-07T07:22:40.200Z,66.56
2019-04-07T07:25:10.337Z,65.01
2019-04-07T07:27:41.712Z,65.56
2019-04-07T07:30:11.045Z,65.56
2019-04-07T07:32:40.961Z,66.52
2019-04-07T07:35:15.006Z,66.05
2019-04-07T07:37:41.794Z,64.91
2019-04-07T07:40:12.383Z,64.93
2019-04-07T07:42:43.103Z,64.14
2019-04-07T07:45:14.006Z,63.26
2019-04-07T07:47:43.817Z,62.79
2019-04-07T07:50:13.611Z,63.03
2019-04-07T07:52:44.158Z,64.35
2019-04-07T07:55:14.253Z,62.96
2019-04-07T07:57:43.845Z,62.32
2019-04-07T08:00:13.711Z,64.01
2019-04-07T08:02:43.244Z,63.92
2019-04-07T08:05:13.445Z,64.90
2019-04-07T08:07:46.804Z,62.56
2019-04-07T08:10:15.735Z,60.39
2019-04-07T08:12:47.216Z,61.78
2019-04-07T08:15:22.852Z,62.56
2019-04-07T08:17:50.931Z,62.11
2019-04-07T08:20:22.044Z,60.61
2019-04-07T08:22:51.607Z,58.64
2019-04-07T08:25:25.052Z,61.10
2019-04-07T08:27:55.412Z,60.53
2019-04-07T08:30:25.058Z,56.62
2019-04-07T08:32:57.654Z,57.44
2019-04-07T08:35:25.894Z,58.19
2019-04-07T08:37:55.633Z,57.02
2019-04-07T08:40:25.309Z,58.37
2019-04-07T08:42:55.068Z,56.49
2019-04-07T08:45:26.710Z,56.15
2019-04-07T08:47:55.730Z,56.48
2019-04-07T08:50:27.710Z,55.55
2019-04-07T08:52:56.456Z,54.55
2019-04-07T08:55:25.983Z,55.88
2019-04-07T08:57:56.194Z,56.98
2019-04-07T09:00:28.306Z,56.16
2019-04-07T09:03:03.903Z,55.60
2019-04-07T09:05:31.098Z,53.66
2019-04-07T09:08:03.589Z,53.83
2019-04-07T09:10:51.414Z,54.67
2019-04-07T09:13:20.913Z,55.90
2019-04-07T09:16:04.655Z,55.21
2019-04-07T09:18:57.787Z,58.12
2019-04-07T09:21:38.660Z,54.38
2019-04-07T09:24:18.181Z,51.69
2019-04-07T09:26:58.834Z,51.05
2019-04-07T09:29:31.237Z,53.05
2019-04-07T09:32:11.966Z,51.75
2019-04-07T09:34:43.140Z,53.49
2019-04-07T09:37:22.100Z,51.43
2019-04-07T09:40:09.372Z,50.35
2019-04-07T09:42:46.656Z,49.85
2019-04-07T09:45:29.929Z,49.59
2019-04-07T09:48:02.061Z,51.36
2019-04-07T09:50:33.505Z,49.14
2019-04-07T09:53:07.313Z,50.40
2019-04-07T09:55:38.415Z,46.56
2019-04-07T09:58:25.180Z,46.61
2019-04-07T10:01:07.803Z,45.66
2019-04-07T10:03:55.592Z,44.63
2019-04-07T10:06:26.841Z,43.02
2019-04-07T10:09:01.085Z,44.28
2019-04-07T10:11:39.671Z,42.22
2019-04-07T10:14:10.848Z,42.95
2019-04-07T10:16:50.789Z,42.38
2019-04-07T10:19:39.730Z,41.32
2019-04-07T10:22:13.998Z,39.97
2019-04-07T10:24:48.309Z,38.86
2019-04-07T10:27:28.617Z,40.75
2019-04-07T10:30:03.557Z,44.68
2019-04-07T10:32:34.775Z,43.95
2019-04-07T10:35:11.275Z,42.68
2019-04-07T10:37:50.995Z,40.09
2019-04-07T10:40:34.748Z,38.67
2019-04-07T10:43:25.028Z,42.96
2019-04-07T10:46:02.411Z,39.34
2019-04-07T10:48:48.587Z,40.32
2019-04-07T10:51:28.520Z,43.69
2019-04-07T10:54:00.399Z,39.04
2019-04-07T10:56:48.019Z,35.01
2019-04-07T10:59:20.966Z,35.71
2019-04-07T11:02:08.334Z,39.69
2019-04-07T11:04:51.815Z,38.14
2019-04-07T11:07:26.647Z,39.38
2019-04-07T11:10:07.110Z,36.32
2019-04-07T11:12:41.276Z,36.68
2019-04-07T11:15:27.571Z,38.48
2019-04-07T11:18:04.727Z,39.80
2019-04-07T11:20:39.016Z,37.96
2019-04-07T11:23:19.142Z,37.81
2019-04-07T11:26:03.650Z,37.09
2019-04-07T11:28:37.988Z,40.12
2019-04-07T11:31:09.376Z,36.66
2019-04-07T11:33:50.322Z,37.79
2019-04-07T11:36:31.036Z,37.97
2019-04-07T11:39:13.217Z,40.71
2019-04-07T11:41:51.486Z,39.63
2019-04-07T11:44:32.271Z,37.01
2019-04-07T11:47:08.848Z,37.99
2019-04-07T11:49:44.716Z,39.13
2019-04-07T11:52:30.986Z,36.82
2019-04-07T11:55:18.434Z,39.00
2019-04-07T11:58:03.013Z,40.05
2019-04-07T12:00:23.748Z,40.70
2019-04-07T12:03:03.949Z,40.15
2019-04-07T12:05:44.161Z,40.26
2019-04-07T12:08:36.052Z,39.92
2019-04-07T12:11:06.248Z,39.81
2019-04-07T12:13:37.436Z,39.66
2019-04-07T12:16:18.462Z,42.07
2019-04-07T12:19:09.447Z,40.94
2019-04-07T12:21:49.375Z,37.96
2019-04-07T12:24:24.663Z,39.91
2019-04-07T12:27:10.857Z,40.62
2019-04-07T12:29:41.697Z,39.40
2019-04-07T12:32:15.899Z,41.55
2019-04-07T12:34:56.643Z,42.71
2019-04-07T12:37:44.595Z,40.36
2019-04-07T12:40:22.988Z,39.71
2019-04-07T12:43:13.204Z,40.38
2019-04-07T12:45:43.700Z,43.33
2019-04-07T12:48:19.616Z,36.17
2019-04-07T12:50:57.344Z,38.84
2019-04-07T12:53:36.124Z,38.70
2019-04-07T12:56:08.054Z,40.68
2019-04-07T12:58:44.047Z,37.30
2019-04-07T13:01:17.550Z,39.80
2019-04-07T13:03:47.284Z,40.67
2019-04-07T13:06:35.196Z,38.27
2019-04-07T13:09:28.967Z,39.92
2019-04-07T13:12:06.556Z,41.88
2019-04-07T13:14:42.797Z,39.77
2019-04-07T13:17:34.159Z,37.55
2019-04-07T13:20:02.424Z,39.23
2019-04-07T13:22:39.390Z,38.69
2019-04-07T13:25:29.264Z,40.61
2019-04-07T13:28:00.321Z,37.24
2019-04-07T13:30:44.462Z,39.84
2019-04-07T13:33:30.602Z,37.86
2019-04-07T13:36:18.505Z,37.88
2019-04-07T13:39:06.619Z,36.42
2019-04-07T13:41:44.230Z,33.13
2019-04-07T13:44:10.788Z,33.21
2019-04-07T13:47:00.613Z,35.27
2019-04-07T13:49:33.195Z,36.63
2019-04-07T13:52:19.329Z,36.12
2019-04-07T13:54:54.779Z,37.94
2019-04-07T13:57:34.963Z,35.63
2019-04-07T14:00:16.005Z,36.94
2019-04-07T14:02:53.346Z,36.32
2019-04-07T14:05:30.415Z,36.39
2019-04-07T14:08:17.918Z,39.34
2019-04-07T14:10:49.278Z,35.82
2019-04-07T14:13:23.254Z,36.16
2019-04-07T14:15:56.478Z,36.32
2019-04-07T14:18:27.805Z,38.26
2019-04-07T14:21:15.752Z,36.63
2019-04-07T14:23:55.540Z,35.11
2019-04-07T14:26:34.621Z,36.99
2019-04-07T14:29:19.510Z,40.35
2019-04-07T14:32:02.080Z,38.50
2019-04-07T14:34:49.882Z,34.05
2019-04-07T14:37:21.779Z,34.60
2019-04-07T14:39:56.651Z,35.02
2019-04-07T14:42:37.225Z,37.68
2019-04-07T14:45:09.551Z,35.24
2019-04-07T14:47:53.523Z,33.22
2019-04-07T14:50:25.308Z,33.81
2019-04-07T14:53:13.167Z,32.94
2019-04-07T14:55:53.143Z,36.84
2019-04-07T14:58:28.110Z,31.14
2019-04-07T15:01:08.452Z,34.36
2019-04-07T15:03:41.010Z,34.01
2019-04-07T15:06:10.894Z,33.00
2019-04-07T15:08:44.251Z,31.14
2019-04-07T15:11:25.007Z,31.09
2019-04-07T15:13:57.899Z,30.02
2019-04-07T15:16:27.383Z,31.12
2019-04-07T15:18:58.701Z,32.28
2019-04-07T15:21:28.261Z,31.17
2019-04-07T15:24:04.667Z,29.08
2019-04-07T15:26:34.692Z,29.19
2019-04-07T15:29:09.261Z,31.71
2019-04-07T15:31:37.450Z,32.96
2019-04-07T15:34:09.514Z,33.22
2019-04-07T15:36:38.611Z,33.58
2019-04-07T15:39:09.801Z,33.57
2019-04-07T15:41:42.503Z,32.62
2019-04-07T15:44:14.000Z,30.56
2019-04-07T15:46:42.657Z,31.67
2019-04-07T15:49:13.408Z,32.91
2019-04-07T15:51:43.252Z,31.85
2019-04-07T15:54:13.521Z,34.81
2019-04-07T15:56:48.078Z,34.55
2019-04-07T15:59:18.753Z,34.96
2019-04-07T16:01:50.012Z,38.48
2019-04-07T16:04:25.186Z,38.25
2019-04-07T16:06:51.578Z,37.10
2019-04-07T16:09:35.923Z,40.42
2019-04-07T16:11:57.453Z,38.22
2019-04-07T16:14:26.338Z,35.88
2019-04-07T16:16:59.611Z,37.76
2019-04-07T16:19:37.248Z,35.87
2019-04-07T16:22:00.022Z,35.10
2019-04-07T16:24:32.643Z,36.06
2019-04-07T16:27:05.181Z,38.08
2019-04-07T16:29:35.202Z,37.28
2019-04-07T16:32:04.875Z,37.52
2019-04-07T16:34:34.884Z,37.69
2019-04-07T16:37:06.808Z,40.45
2019-04-07T16:39:36.403Z,36.67
2019-04-07T16:42:06.478Z,37.43
2019-04-07T16:44:37.596Z,40.15
2019-04-07T16:47:17.680Z,36.87
2019-04-07T16:49:41.355Z,38.72
2019-04-07T16:52:10.159Z,40.63
2019-04-07T16:54:43.489Z,38.82
2019-04-07T16:57:11.201Z,36.72
2019-04-07T16:59:43.011Z,37.75
2019-04-07T17:02:14.507Z,37.94
2019-04-07T17:04:47.377Z,37.39
2019-04-07T17:07:21.113Z,38.37
2019-04-07T17:09:49.590Z,40.40
2019-04-07T17:12:19.238Z,37.59
2019-04-07T17:14:49.416Z,37.90
2019-04-07T17:17:21.711Z,39.52
2019-04-07T17:19:52.185Z,42.58
2019-04-07T17:22:21.733Z,42.64
2019-04-07T17:24:58.325Z,41.46
2019-04-07T17:27:27.877Z,41.89
2019-04-07T17:30:00.535Z,40.39
2019-04-07T17:32:33.074Z,40.35
2019-04-07T17:35:02.877Z,40.41
2019-04-07T17:37:32.352Z,42.00
2019-04-07T17:40:11.286Z,40.25
2019-04-07T17:42:39.843Z,40.64
2019-04-07T17:45:27.558Z,41.21
2019-04-07T17:48:06.886Z,41.28
2019-04-07T17:50:44.358Z,40.37
2019-04-07T17:53:17.439Z,40.56
2019-04-07T17:55:57.183Z,40.46
2019-04-07T17:58:38.134Z,40.99
2019-04-07T18:01:08.993Z,40.95
2019-04-07T18:03:49.671Z,41.06
2019-04-07T18:06:33.477Z,41.30
2019-04-07T18:09:12.292Z,40.65
2019-04-07T18:11:44.798Z,40.18
2019-04-07T18:14:18.096Z,40.76
2019-04-07T18:17:00.823Z,40.54
2019-04-07T18:19:36.128Z,39.92
2019-04-07T18:22:24.764Z,39.29
2019-04-07T18:25:01.864Z,39.49
2019-04-07T18:27:34.181Z,39.35
2019-04-07T18:30:08.303Z,39.25
2019-04-07T18:32:46.785Z,39.56
2019-04-07T18:35:34.775Z,39.38
2019-04-07T18:38:19.352Z,39.06
2019-04-07T18:41:01.030Z,38.21
2019-04-07T18:43:49.122Z,37.95
2019-04-07T18:46:16.823Z,37.51
2019-04-07T18:48:56.400Z,37.15
2019-04-07T18:51:47.063Z,36.88
2019-04-07T18:54:33.570Z,36.63
2019-04-07T18:57:11.886Z,37.14
2019-04-07T18:59:59.420Z,37.72
2019-04-07T19:02:33.273Z,37.76
2019-04-07T19:05:05.101Z,38.15
2019-04-07T19:07:37.906Z,38.44
2019-04-07T19:10:17.677Z,38.67
2019-04-07T19:13:10.993Z,38.84
2019-04-07T19:15:42.139Z,39.09
2019-04-07T19:18:31.281Z,38.98
2019-04-07T19:21:18.351Z,39.47
2019-04-07T19:24:08.017Z,39.59
2019-04-07T19:26:49.809Z,40.14
2019-04-07T19:29:33.722Z,40.75
2019-04-07T19:32:17.945Z,41.68
2019-04-07T19:34:57.320Z,43.33
2019-04-07T19:37:40.758Z,44.04
2019-04-07T19:40:19.150Z,43.97
2019-04-07T19:42:56.358Z,45.76
2019-04-07T19:45:43.774Z,46.76
2019-04-07T19:48:31.152Z,47.64
2019-04-07T19:51:05.086Z,47.75
2019-04-07T19:53:36.657Z,48.06
2019-04-07T19:56:16.777Z,47.86
2019-04-07T19:58:51.622Z,49.20
2019-04-07T20:01:23.382Z,49.59
2019-04-07T20:04:13.001Z,49.69
2019-04-07T20:06:44.211Z,50.05
2019-04-07T20:09:32.122Z,49.74
2019-04-07T20:12:18.460Z,50.12
2019-04-07T20:15:01.385Z,50.12
2019-04-07T20:17:31.073Z,50.21
2019-04-07T20:20:12.294Z,51.35
2019-04-07T20:23:00.333Z,51.41
2019-04-07T20:25:37.599Z,51.52
2019-04-07T20:28:08.967Z,51.84
2019-04-07T20:30:51.150Z,52.11
2019-04-07T20:33:21.671Z,52.97
2019-04-07T20:36:02.334Z,53.06
2019-04-07T20:38:33.737Z,53.66
2019-04-07T20:41:05.378Z,54.13
2019-04-07T20:43:48.648Z,54.27
2019-04-07T20:46:23.970Z,52.62
2019-04-07T20:49:13.636Z,52.34
2019-04-07T20:52:03.036Z,52.85
2019-04-07T20:54:35.408Z,53.74
2019-04-07T20:57:07.210Z,54.51
2019-04-07T20:59:50.155Z,55.33
2019-04-07T21:02:30.290Z,55.99
2019-04-07T21:05:05.230Z,55.21
2019-04-07T21:07:39.694Z,55.41
2019-04-07T21:10:13.556Z,55.66
2019-04-07T21:12:50.776Z,55.88
2019-04-07T21:15:32.367Z,55.88
2019-04-07T21:18:04.165Z,56.44
2019-04-07T21:20:36.728Z,56.56
2019-04-07T21:23:08.120Z,56.98
2019-04-07T21:25:41.687Z,56.44
2019-04-07T21:28:12.757Z,57.68
2019-04-07T21:30:56.230Z,57.83
2019-04-07T21:33:30.019Z,58.46
2019-04-07T21:36:10.496Z,58.43
2019-04-07T21:38:45.349Z,56.83
2019-04-07T21:41:16.858Z,56.50
2019-04-07T21:44:04.641Z,57.19
2019-04-07T21:46:44.659Z,57.13
2019-04-07T21:49:22.031Z,57.54
2019-04-07T21:51:55.721Z,58.08
2019-04-07T21:54:43.890Z,59.12
2019-04-07T21:57:15.236Z,59.17
2019-04-07T21:59:52.290Z,59.09
2019-04-07T22:02:32.170Z,58.89
2019-04-07T22:05:15.675Z,58.76
2019-04-07T22:07:46.834Z,59.04
2019-04-07T22:10:19.442Z,59.67
2019-04-07T22:12:48.705Z,59.07
2019-04-07T22:15:18.227Z,60.18
2019-04-07T22:17:47.901Z,60.03
2019-04-07T22:20:20.106Z,60.12
2019-04-07T22:22:51.848Z,60.42
2019-04-07T22:25:32.736Z,60.28
2019-04-07T22:28:02.230Z,60.09
2019-04-07T22:30:33.975Z,60.48
2019-04-07T22:33:04.182Z,60.45
2019-04-07T22:35:34.492Z,61.12
2019-04-07T22:38:05.222Z,60.86
2019-04-07T22:40:37.963Z,60.77
2019-04-07T22:43:05.874Z,60.51
2019-04-07T22:45:35.467Z,61.00
2019-04-07T22:48:08.121Z,60.65
2019-04-07T22:50:38.230Z,60.36
2019-04-07T22:53:09.383Z,60.32
2019-04-07T22:55:39.976Z,61.12
2019-04-07T22:58:09.554Z,60.62
2019-04-07T23:00:40.351Z,60.67
2019-04-07T23:03:12.000Z,60.28
2019-04-07T23:05:41.641Z,60.17
2019-04-07T23:08:11.212Z,60.63
2019-04-07T23:10:40.844Z,60.52
2019-04-07T23:13:11.027Z,60.89
2019-04-07T23:15:45.539Z,60.24
2019-04-07T23:18:12.028Z,60.40
2019-04-07T23:20:41.777Z,60.67
2019-04-07T23:23:11.338Z,61.04
2019-04-07T23:25:40.766Z,61.14
2019-04-07T23:28:10.367Z,61.42
2019-04-07T23:30:40.850Z,61.48
2019-04-07T23:33:10.476Z,61.52
2019-04-07T23:35:39.939Z,61.77
2019-04-07T23:38:09.390Z,61.50
2019-04-07T23:40:39.808Z,62.31
2019-04-07T23:43:09.355Z,62.96
2019-04-07T23:45:38.774Z,63.03
2019-04-07T23:48:08.407Z,63.14
2019-04-07T23:50:37.791Z,62.86
2019-04-07T23:53:43.719Z,62.91
2019-04-07T23:56:13.134Z,62.47
2019-04-07T23:58:43.438Z,61.75
